createdAt,value
2019-01-20T00:01:15.734Z,49.93
2019-01-20T00:02:32.200Z,47.43
2019-01-20T00:03:47.376Z,46.15
2019-01-20T00:05:05.444Z,48.75
2019-01-20T00:06:21.953Z,49.30
2019-01-20T00:07:38.861Z,50.00
2019-01-20T00:08:54.064Z,49.93
2019-01-20T00:10:18.231Z,49.35
2019-01-20T00:11:35.122Z,50.43
2019-01-20T00:12:51.502Z,52.17
2019-01-20T00:14:08.438Z,49.98
2019-01-20T00:15:24.788Z,50.30
2019-01-20T00:16:41.529Z,50.80
2019-01-20T00:17:57.848Z,49.77
2019-01-20T00:19:14.388Z,50.63
2019-01-20T00:20:30.678Z,49.27
2019-01-20T00:21:46.890Z,49.77
2019-01-20T00:23:10.977Z,50.90
2019-01-20T00:24:27.341Z,50.88
2019-01-20T00:25:43.919Z,49.70
2019-01-20T00:27:00.676Z,49.73
2019-01-20T00:28:17.369Z,49.98
2019-01-20T00:29:34.366Z,49.27
2019-01-20T00:30:51.612Z,48.70
2019-01-20T00:32:10.967Z,49.25
2019-01-20T00:33:28.913Z,49.90
2019-01-20T00:34:46.001Z,49.33
2019-01-20T00:36:04.109Z,50.50
2019-01-20T00:37:20.489Z,46.95
2019-01-20T00:38:37.396Z,51.53
2019-01-20T00:39:53.748Z,49.50
2019-01-20T00:41:10.790Z,48.25
2019-01-20T00:42:27.161Z,55.30
2019-01-20T00:43:43.545Z,48.92
2019-01-20T00:45:02.792Z,50.38
2019-01-20T00:46:18.531Z,55.85
2019-01-20T00:47:35.000Z,50.45
2019-01-20T00:48:51.299Z,54.67
2019-01-20T00:50:07.934Z,47.95
2019-01-20T00:51:24.338Z,50.30
2019-01-20T00:52:41.335Z,52.08
2019-01-20T00:53:57.945Z,53.50
2019-01-20T00:55:15.373Z,50.23
2019-01-20T00:56:32.586Z,52.33
2019-01-20T00:57:49.324Z,53.78
2019-01-20T00:59:05.601Z,50.85
2019-01-20T01:00:22.836Z,51.63
2019-01-20T01:01:39.536Z,55.35
2019-01-20T01:02:56.113Z,54.03
2019-01-20T01:04:12.749Z,54.20
2019-01-20T01:05:29.843Z,53.78
2019-01-20T01:06:46.549Z,54.63
2019-01-20T01:08:03.328Z,56.63
2019-01-20T01:09:19.982Z,54.50
2019-01-20T01:10:36.652Z,52.90
2019-01-20T01:11:53.761Z,55.23
2019-01-20T01:13:10.401Z,59.23
2019-01-20T01:14:27.201Z,57.50
2019-01-20T01:15:43.744Z,52.65
2019-01-20T01:17:00.378Z,52.58
2019-01-20T01:18:16.725Z,53.30
2019-01-20T01:19:34.009Z,52.20
2019-01-20T01:20:50.540Z,54.90
2019-01-20T01:22:07.072Z,52.83
2019-01-20T01:23:23.936Z,57.78
2019-01-20T01:24:40.317Z,54.38
2019-01-20T01:25:56.867Z,52.50
2019-01-20T01:27:13.487Z,43.17
2019-01-20T01:28:28.777Z,54.75
2019-01-20T01:29:52.879Z,51.50
2019-01-20T01:31:10.070Z,52.90
2019-01-20T01:32:26.465Z,54.70
2019-01-20T01:33:31.552Z,53.73
2019-01-20T01:34:55.638Z,56.88
2019-01-20T01:36:12.196Z,56.45
2019-01-20T01:37:27.472Z,57.90
2019-01-20T01:38:43.887Z,54.63
2019-01-20T01:40:00.213Z,56.42
2019-01-20T01:41:17.333Z,57.78
2019-01-20T01:42:33.758Z,54.90
2019-01-20T01:43:50.422Z,61.60
2019-01-20T01:45:07.425Z,55.50
2019-01-20T01:46:24.258Z,53.23
2019-01-20T01:47:40.553Z,58.87
2019-01-20T01:48:56.938Z,60.10
2019-01-20T01:50:13.401Z,57.13
2019-01-20T01:51:30.197Z,60.80
2019-01-20T01:52:47.363Z,63.45
2019-01-20T01:54:03.706Z,59.70
2019-01-20T01:55:21.051Z,59.30
2019-01-20T01:56:36.266Z,59.93
2019-01-20T01:58:00.349Z,66.53
2019-01-20T01:59:16.948Z,59.75
2019-01-20T02:00:33.313Z,58.52
2019-01-20T02:01:49.999Z,63.30
2019-01-20T02:03:06.293Z,60.73
2019-01-20T02:04:22.758Z,56.40
2019-01-20T02:05:39.800Z,64.53
2019-01-20T02:06:56.201Z,58.40
2019-01-20T02:08:12.660Z,59.48
2019-01-20T02:09:27.936Z,57.93
2019-01-20T02:10:52.033Z,60.03
2019-01-20T02:12:08.432Z,57.48
2019-01-20T02:13:23.759Z,57.70
2019-01-20T02:14:40.306Z,58.68
2019-01-20T02:15:56.652Z,54.10
2019-01-20T02:17:13.116Z,55.83
2019-01-20T02:18:18.248Z,57.98
2019-01-20T02:19:23.270Z,58.25
2019-01-20T02:20:28.344Z,61.13
2019-01-20T02:21:33.381Z,59.63
2019-01-20T02:22:38.479Z,57.48
2019-01-20T02:23:43.591Z,58.05
2019-01-20T02:24:48.621Z,57.08
2019-01-20T02:25:53.701Z,56.42
2019-01-20T02:26:58.765Z,57.15
2019-01-20T02:28:03.881Z,56.98
2019-01-20T02:29:09.037Z,55.95
2019-01-20T02:30:17.965Z,53.15
2019-01-20T02:31:23.096Z,58.02
2019-01-20T02:32:28.104Z,59.90
2019-01-20T02:33:33.136Z,57.50
2019-01-20T02:34:38.179Z,56.53
2019-01-20T02:35:43.246Z,58.40
2019-01-20T02:36:48.265Z,56.08
2019-01-20T02:37:53.376Z,56.33
2019-01-20T02:38:58.379Z,55.98
2019-01-20T02:40:03.720Z,63.28
2019-01-20T02:41:08.840Z,56.33
2019-01-20T02:42:13.949Z,57.23
2019-01-20T02:43:18.966Z,59.50
2019-01-20T02:44:23.988Z,58.15
2019-01-20T02:45:29.120Z,57.20
2019-01-20T02:46:34.212Z,61.48
2019-01-20T02:47:39.242Z,58.73
2019-01-20T02:48:44.281Z,58.45
2019-01-20T02:49:49.315Z,59.88
2019-01-20T02:50:54.344Z,59.42
2019-01-20T02:51:59.468Z,62.20
2019-01-20T02:53:04.482Z,59.85
2019-01-20T02:54:09.580Z,59.60
2019-01-20T02:55:14.885Z,59.73
2019-01-20T02:56:19.895Z,63.05
2019-01-20T02:57:24.945Z,59.38
2019-01-20T02:58:29.989Z,57.35
2019-01-20T02:59:35.033Z,57.78
2019-01-20T03:00:40.049Z,58.15
2019-01-20T03:01:45.177Z,57.80
2019-01-20T03:02:50.528Z,60.88
2019-01-20T03:03:55.557Z,60.78
2019-01-20T03:05:00.639Z,61.40
2019-01-20T03:06:05.690Z,58.60
2019-01-20T03:07:10.723Z,61.48
2019-01-20T03:08:15.736Z,61.10
2019-01-20T03:09:20.821Z,59.60
2019-01-20T03:10:25.825Z,61.00
2019-01-20T03:11:30.981Z,62.67
2019-01-20T03:12:36.052Z,61.55
2019-01-20T03:13:41.072Z,57.93
2019-01-20T03:14:47.237Z,60.00
2019-01-20T03:15:52.338Z,59.27
2019-01-20T03:16:57.447Z,61.20
2019-01-20T03:18:02.521Z,59.25
2019-01-20T03:19:07.629Z,58.38
2019-01-20T03:20:15.357Z,56.53
2019-01-20T03:21:20.356Z,58.50
2019-01-20T03:22:25.453Z,65.35
2019-01-20T03:23:30.486Z,61.37
2019-01-20T03:24:35.578Z,60.80
2019-01-20T03:25:40.672Z,59.35
2019-01-20T03:26:45.699Z,61.37
2019-01-20T03:27:50.797Z,60.98
2019-01-20T03:28:55.865Z,62.62
2019-01-20T03:30:00.883Z,59.03
2019-01-20T03:31:05.971Z,58.75
2019-01-20T03:32:10.977Z,65.17
2019-01-20T03:33:17.166Z,60.43
2019-01-20T03:34:22.256Z,55.78
2019-01-20T03:35:27.350Z,57.93
2019-01-20T03:36:32.440Z,58.68
2019-01-20T03:37:37.621Z,57.75
2019-01-20T03:38:42.658Z,58.80
2019-01-20T03:39:47.754Z,54.85
2019-01-20T03:40:52.840Z,54.53
2019-01-20T03:41:57.945Z,57.95
2019-01-20T03:43:03.011Z,57.43
2019-01-20T03:44:08.017Z,55.58
2019-01-20T03:45:15.379Z,53.75
2019-01-20T03:46:20.394Z,52.50
2019-01-20T03:47:26.561Z,56.53
2019-01-20T03:48:31.656Z,56.15
2019-01-20T03:49:36.703Z,54.25
2019-01-20T03:50:41.717Z,54.15
2019-01-20T03:51:46.737Z,54.38
2019-01-20T03:52:51.836Z,54.53
2019-01-20T03:53:58.016Z,52.78
2019-01-20T03:55:03.026Z,54.18
2019-01-20T03:56:08.032Z,52.20
2019-01-20T03:57:13.034Z,53.33
2019-01-20T03:58:18.128Z,52.65
2019-01-20T03:59:23.153Z,52.50
2019-01-20T04:00:28.338Z,52.88
2019-01-20T04:01:33.440Z,50.80
2019-01-20T04:02:38.624Z,52.78
2019-01-20T04:03:43.652Z,53.68
2019-01-20T04:04:49.867Z,52.58
2019-01-20T04:05:54.881Z,54.35
2019-01-20T04:06:59.904Z,50.65
2019-01-20T04:08:05.008Z,55.40
2019-01-20T04:09:10.114Z,53.58
2019-01-20T04:10:15.271Z,54.20
2019-01-20T04:11:20.373Z,56.83
2019-01-20T04:12:25.487Z,53.40
2019-01-20T04:13:30.563Z,51.65
2019-01-20T04:14:54.654Z,53.15
2019-01-20T04:15:59.733Z,52.98
2019-01-20T04:17:04.773Z,51.30
2019-01-20T04:18:09.802Z,51.18
2019-01-20T04:19:14.841Z,52.43
2019-01-20T04:20:19.847Z,50.78
2019-01-20T04:21:25.926Z,53.70
2019-01-20T04:22:30.966Z,50.92
2019-01-20T04:23:36.000Z,50.33
2019-01-20T04:26:48.481Z,49.00
2019-01-20T04:28:04.863Z,49.27
2019-01-20T04:29:21.353Z,50.00
2019-01-20T04:30:37.920Z,49.67
2019-01-20T04:31:54.414Z,49.93
2019-01-20T04:33:10.977Z,48.92
2019-01-20T04:34:28.501Z,47.80
2019-01-20T04:35:45.085Z,49.48
2019-01-20T04:37:02.017Z,51.45
2019-01-20T04:38:19.203Z,50.80
2019-01-20T04:39:36.104Z,48.63
2019-01-20T04:40:52.365Z,49.42
2019-01-20T04:42:09.177Z,49.20
2019-01-20T04:43:25.467Z,49.25
2019-01-20T04:44:42.050Z,48.60
2019-01-20T04:45:58.484Z,47.73
2019-01-20T04:47:15.459Z,49.00
2019-01-20T04:48:31.821Z,51.88
2019-01-20T04:49:48.205Z,46.37
2019-01-20T04:51:04.757Z,48.60
2019-01-20T04:52:21.997Z,49.48
2019-01-20T04:53:38.657Z,47.88
2019-01-20T04:54:55.952Z,49.35
2019-01-20T04:56:12.698Z,46.45
2019-01-20T04:57:30.024Z,49.33
2019-01-20T04:58:46.680Z,51.02
2019-01-20T05:00:03.079Z,48.90
2019-01-20T05:01:19.792Z,49.93
2019-01-20T05:02:36.309Z,51.75
2019-01-20T05:03:53.061Z,51.60
2019-01-20T05:05:09.493Z,49.27
2019-01-20T05:06:25.885Z,49.53
2019-01-20T05:07:42.193Z,49.13
2019-01-20T05:08:58.753Z,53.28
2019-01-20T05:10:15.564Z,50.43
2019-01-20T05:11:32.136Z,50.92
2019-01-20T05:12:48.583Z,50.03
2019-01-20T05:14:03.849Z,51.85
2019-01-20T05:15:27.907Z,49.10
2019-01-20T05:16:44.243Z,51.33
2019-01-20T05:18:01.502Z,51.13
2019-01-20T05:19:17.949Z,51.58
2019-01-20T05:20:34.773Z,54.63
2019-01-20T05:21:51.184Z,51.23
2019-01-20T05:23:07.656Z,51.45
2019-01-20T05:24:24.041Z,52.45
2019-01-20T05:25:40.917Z,50.23
2019-01-20T05:26:58.441Z,52.25
2019-01-20T05:28:15.064Z,50.90
2019-01-20T05:29:32.047Z,51.25
2019-01-20T05:30:48.304Z,49.40
2019-01-20T05:32:05.388Z,50.48
2019-01-20T05:33:21.843Z,50.20
2019-01-20T05:34:38.156Z,47.67
2019-01-20T05:35:54.733Z,49.58
2019-01-20T05:37:11.460Z,48.48
2019-01-20T05:38:27.976Z,49.27
2019-01-20T05:39:44.806Z,48.42
2019-01-20T05:41:01.156Z,48.15
2019-01-20T05:42:18.419Z,47.45
2019-01-20T05:43:34.903Z,49.50
2019-01-20T05:44:51.352Z,44.67
2019-01-20T05:46:08.272Z,47.50
2019-01-20T05:47:24.985Z,47.48
2019-01-20T05:48:41.460Z,48.02
2019-01-20T05:49:58.404Z,48.28
2019-01-20T05:51:14.752Z,46.23
2019-01-20T05:52:31.364Z,47.88
2019-01-20T05:53:48.169Z,47.85
2019-01-20T05:55:04.620Z,46.28
2019-01-20T05:56:21.054Z,47.53
2019-01-20T05:57:37.593Z,48.83
2019-01-20T05:58:54.257Z,49.00
2019-01-20T06:00:10.861Z,47.03
2019-01-20T06:01:28.068Z,49.40
2019-01-20T06:02:44.442Z,48.65
2019-01-20T06:04:01.521Z,49.08
2019-01-20T06:05:17.868Z,47.65
2019-01-20T06:06:35.066Z,46.73
2019-01-20T06:07:51.386Z,44.40
2019-01-20T06:09:08.000Z,46.40
2019-01-20T06:10:24.726Z,46.05
2019-01-20T06:11:41.101Z,47.60
2019-01-20T06:12:57.535Z,45.60
2019-01-20T06:14:14.799Z,46.30
2019-01-20T06:15:31.893Z,44.58
2019-01-20T06:16:48.185Z,45.28
2019-01-20T06:18:04.863Z,45.20
2019-01-20T06:19:21.646Z,47.00
2019-01-20T06:20:38.337Z,44.00
2019-01-20T06:21:54.625Z,46.73
2019-01-20T06:23:11.461Z,44.60
2019-01-20T06:24:27.894Z,42.80
2019-01-20T06:25:44.280Z,44.85
2019-01-20T06:27:00.729Z,45.88
2019-01-20T06:28:17.430Z,44.53
2019-01-20T06:29:32.673Z,46.40
2019-01-20T06:30:56.787Z,44.48
2019-01-20T06:32:13.272Z,42.53
2019-01-20T06:33:29.747Z,46.02
2019-01-20T06:34:46.842Z,44.58
2019-01-20T06:36:03.456Z,47.50
2019-01-20T06:37:19.655Z,45.95
2019-01-20T06:38:43.755Z,49.00
2019-01-20T06:40:00.175Z,47.33
2019-01-20T06:41:16.873Z,49.88
2019-01-20T06:42:33.343Z,47.03
2019-01-20T06:43:49.805Z,46.28
2019-01-20T06:45:06.874Z,45.55
2019-01-20T06:46:23.454Z,46.95
2019-01-20T06:47:40.147Z,46.13
2019-01-20T06:48:56.722Z,46.63
2019-01-20T06:50:13.536Z,46.28
2019-01-20T06:51:29.969Z,46.18
2019-01-20T06:52:46.864Z,44.88
2019-01-20T06:54:04.065Z,45.12
2019-01-20T06:55:21.740Z,43.65
2019-01-20T06:56:38.143Z,44.93
2019-01-20T06:57:54.472Z,44.67
2019-01-20T06:59:11.214Z,45.45
2019-01-20T07:00:27.582Z,46.85
2019-01-20T07:01:43.989Z,47.50
2019-01-20T07:03:00.658Z,46.20
2019-01-20T07:04:17.061Z,45.43
2019-01-20T07:05:32.256Z,45.50
2019-01-20T07:06:56.420Z,46.88
2019-01-20T07:08:13.525Z,45.83
2019-01-20T07:09:30.141Z,46.83
2019-01-20T07:10:46.978Z,45.58
2019-01-20T07:12:03.545Z,43.68
2019-01-20T07:13:19.922Z,45.73
2019-01-20T07:14:36.336Z,46.45
2019-01-20T07:15:53.325Z,48.87
2019-01-20T07:17:10.476Z,43.60
2019-01-20T07:18:28.133Z,46.65
2019-01-20T07:19:44.802Z,45.65
2019-01-20T07:21:01.471Z,44.83
2019-01-20T07:22:18.642Z,45.10
2019-01-20T07:23:35.073Z,45.17
2019-01-20T07:24:51.405Z,44.35
2019-01-20T07:26:07.932Z,45.90
2019-01-20T07:27:24.653Z,44.98
2019-01-20T07:28:41.616Z,45.08
2019-01-20T07:29:58.133Z,43.80
2019-01-20T07:31:14.696Z,44.98
2019-01-20T07:32:31.948Z,44.55
2019-01-20T07:33:49.217Z,43.40
2019-01-20T07:35:05.792Z,44.73
2019-01-20T07:36:22.180Z,41.75
2019-01-20T07:37:38.917Z,42.83
2019-01-20T07:38:55.868Z,41.08
2019-01-20T07:40:12.273Z,43.45
2019-01-20T07:41:29.077Z,42.27
2019-01-20T07:42:45.708Z,43.50
2019-01-20T07:44:02.945Z,41.28
2019-01-20T07:45:20.104Z,43.02
2019-01-20T07:46:36.502Z,39.75
2019-01-20T07:47:53.151Z,42.62
2019-01-20T07:49:09.614Z,42.67
2019-01-20T07:50:26.211Z,42.80
2019-01-20T07:51:42.479Z,42.33
2019-01-20T07:52:58.934Z,43.15
2019-01-20T07:54:15.210Z,41.63
2019-01-20T07:55:31.628Z,40.50
2019-01-20T07:56:48.651Z,42.73
2019-01-20T07:58:05.221Z,41.28
2019-01-20T07:59:21.901Z,39.35
2019-01-20T08:00:38.219Z,38.63
2019-01-20T08:01:55.221Z,38.30
2019-01-20T08:03:11.821Z,40.00
2019-01-20T08:04:28.197Z,41.45
2019-01-20T08:05:44.665Z,41.15
2019-01-20T08:07:01.020Z,42.78
2019-01-20T08:08:17.540Z,40.30
2019-01-20T08:09:34.725Z,39.80
2019-01-20T08:10:53.699Z,41.48
2019-01-20T08:12:10.336Z,40.60
2019-01-20T08:13:26.989Z,39.70
2019-01-20T08:14:43.766Z,38.17
2019-01-20T08:16:00.226Z,39.70
2019-01-20T08:17:16.868Z,36.93
2019-01-20T08:18:34.086Z,37.80
2019-01-20T08:19:50.747Z,36.75
2019-01-20T08:21:07.115Z,38.30
2019-01-20T08:22:23.568Z,36.70
2019-01-20T08:23:40.542Z,34.43
2019-01-20T08:24:57.224Z,35.20
2019-01-20T08:26:13.952Z,36.15
2019-01-20T08:27:30.409Z,33.28
2019-01-20T08:28:46.879Z,33.02
2019-01-20T08:30:03.944Z,31.65
2019-01-20T08:31:20.326Z,31.12
2019-01-20T08:32:37.137Z,31.80
2019-01-20T08:33:53.865Z,29.20
2019-01-20T08:35:12.009Z,29.63
2019-01-20T08:36:28.572Z,33.42
2019-01-20T08:37:44.998Z,31.75
2019-01-20T08:39:01.584Z,33.70
2019-01-20T08:40:20.053Z,32.65
2019-01-20T08:41:37.366Z,36.17
2019-01-20T08:42:53.728Z,35.03
2019-01-20T08:44:10.099Z,32.48
2019-01-20T08:45:27.291Z,34.13
2019-01-20T08:46:43.715Z,35.08
2019-01-20T08:48:00.127Z,36.28
2019-01-20T08:49:17.073Z,35.50
2019-01-20T08:50:33.833Z,36.80
2019-01-20T08:51:51.153Z,38.85
2019-01-20T08:53:07.665Z,36.20
2019-01-20T08:54:23.989Z,36.60
2019-01-20T08:55:42.111Z,36.15
2019-01-20T08:56:58.592Z,36.13
2019-01-20T08:58:15.701Z,34.88
2019-01-20T08:59:32.320Z,38.67
2019-01-20T09:00:48.781Z,38.23
2019-01-20T09:02:05.164Z,33.95
2019-01-20T09:03:21.941Z,36.13
2019-01-20T09:04:38.345Z,40.45
2019-01-20T09:05:55.264Z,35.98
2019-01-20T09:07:11.948Z,39.10
2019-01-20T09:08:28.553Z,33.20
2019-01-20T09:09:45.149Z,36.48
2019-01-20T09:11:01.823Z,38.20
2019-01-20T09:12:18.789Z,38.95
2019-01-20T09:13:39.813Z,39.00
2019-01-20T09:14:53.929Z,38.05
2019-01-20T09:16:10.369Z,35.90
2019-01-20T09:17:26.751Z,36.25
2019-01-20T09:18:43.279Z,39.20
2019-01-20T09:20:00.025Z,39.60
2019-01-20T09:21:16.676Z,37.42
2019-01-20T09:22:33.655Z,35.52
2019-01-20T09:23:50.008Z,37.00
2019-01-20T09:25:06.865Z,41.60
2019-01-20T09:26:26.344Z,42.83
2019-01-20T09:27:43.487Z,38.70
2019-01-20T09:29:00.057Z,37.83
2019-01-20T09:30:16.732Z,41.10
2019-01-20T09:31:33.957Z,40.17
2019-01-20T09:32:50.509Z,38.92
2019-01-20T09:34:06.780Z,42.27
2019-01-20T09:35:23.301Z,42.40
2019-01-20T09:36:40.269Z,40.58
2019-01-20T09:37:56.809Z,39.78
2019-01-20T09:39:14.690Z,39.13
2019-01-20T09:40:38.836Z,38.78
2019-01-20T09:42:03.038Z,38.55
2019-01-20T09:43:19.936Z,40.05
2019-01-20T09:44:36.392Z,40.28
2019-01-20T09:45:54.265Z,39.18
2019-01-20T09:47:10.990Z,41.68
2019-01-20T09:48:27.452Z,40.30
2019-01-20T09:49:43.883Z,40.17
2019-01-20T09:51:00.426Z,45.28
2019-01-20T09:52:17.216Z,40.17
2019-01-20T09:53:33.732Z,41.37
2019-01-20T09:54:50.637Z,41.25
2019-01-20T09:56:07.277Z,42.43
2019-01-20T09:57:23.598Z,40.33
2019-01-20T09:58:41.152Z,39.38
2019-01-20T09:59:57.591Z,38.80
2019-01-20T10:01:14.086Z,38.85
2019-01-20T10:02:29.408Z,40.70
2019-01-20T10:03:45.988Z,40.83
2019-01-20T10:05:05.090Z,41.23
2019-01-20T10:06:21.836Z,38.95
2019-01-20T10:07:38.463Z,42.20
2019-01-20T10:08:54.965Z,41.70
2019-01-20T10:10:12.238Z,41.83
2019-01-20T10:11:28.869Z,39.83
2019-01-20T10:12:46.159Z,38.80
2019-01-20T10:14:02.448Z,40.90
2019-01-20T10:15:19.100Z,39.08
2019-01-20T10:16:35.473Z,40.70
2019-01-20T10:17:51.796Z,40.65
2019-01-20T10:19:08.532Z,40.03
2019-01-20T10:20:24.893Z,40.33
2019-01-20T10:21:41.467Z,40.05
2019-01-20T10:22:56.777Z,38.20
2019-01-20T10:24:20.868Z,38.28
2019-01-20T10:25:37.952Z,45.20
2019-01-20T10:26:55.072Z,38.88
2019-01-20T10:28:11.657Z,40.95
2019-01-20T10:29:28.129Z,39.38
2019-01-20T10:30:44.569Z,61.20
2019-01-20T10:32:01.217Z,42.13
2019-01-20T10:33:17.702Z,38.90
2019-01-20T10:34:33.209Z,38.88
2019-01-20T10:36:16.301Z,37.15
2019-01-20T10:37:34.203Z,37.58
2019-01-20T10:38:50.673Z,40.43
2019-01-20T10:40:07.196Z,38.75
2019-01-20T10:41:22.407Z,37.78
2019-01-20T10:42:46.493Z,38.00
2019-01-20T10:44:10.622Z,40.40
2019-01-20T10:45:27.604Z,38.92
2019-01-20T10:46:44.021Z,38.45
2019-01-20T10:48:00.667Z,37.13
2019-01-20T10:49:16.990Z,40.63
2019-01-20T10:50:34.234Z,41.92
2019-01-20T10:51:50.647Z,40.98
2019-01-20T10:53:07.098Z,36.58
2019-01-20T10:54:24.058Z,37.38
2019-01-20T10:55:40.776Z,42.48
2019-01-20T10:56:57.172Z,35.52
2019-01-20T10:58:13.668Z,37.48
2019-01-20T10:59:28.931Z,38.48
2019-01-20T11:00:45.478Z,38.75
2019-01-20T11:02:02.268Z,34.45
2019-01-20T11:03:18.665Z,37.23
2019-01-20T11:04:35.459Z,36.13
2019-01-20T11:05:52.425Z,40.40
2019-01-20T11:07:09.057Z,38.38
2019-01-20T11:08:25.427Z,39.08
2019-01-20T11:09:42.075Z,40.63
2019-01-20T11:10:58.437Z,40.55
2019-01-20T11:12:15.086Z,37.23
2019-01-20T11:13:31.491Z,35.65
2019-01-20T11:14:48.110Z,35.63
2019-01-20T11:16:07.197Z,37.63
2019-01-20T11:17:24.145Z,35.40
2019-01-20T11:18:40.457Z,36.90
2019-01-20T11:19:56.801Z,38.33
2019-01-20T11:21:13.373Z,35.43
2019-01-20T11:22:30.310Z,34.83
2019-01-20T11:23:46.879Z,34.20
2019-01-20T11:25:03.273Z,33.70
2019-01-20T11:26:20.166Z,36.42
2019-01-20T11:27:36.577Z,34.33
2019-01-20T11:28:52.869Z,34.15
2019-01-20T11:30:09.258Z,34.15
2019-01-20T11:31:25.742Z,39.48
2019-01-20T11:32:42.962Z,38.60
2019-01-20T11:33:59.657Z,32.00
2019-01-20T11:35:16.309Z,34.98
2019-01-20T11:36:33.529Z,32.35
2019-01-20T11:37:50.226Z,38.25
2019-01-20T11:39:08.410Z,34.65
2019-01-20T11:40:24.992Z,35.25
2019-01-20T11:41:41.491Z,34.65
2019-01-20T11:42:58.108Z,38.00
2019-01-20T11:44:17.084Z,33.45
2019-01-20T11:45:33.236Z,31.85
2019-01-20T11:46:50.307Z,35.03
2019-01-20T11:48:06.875Z,34.33
2019-01-20T11:49:23.788Z,34.23
2019-01-20T11:50:39.082Z,31.42
2019-01-20T11:52:03.188Z,39.05
2019-01-20T11:53:19.541Z,31.48
2019-01-20T11:54:36.674Z,31.00
2019-01-20T11:55:53.555Z,32.55
2019-01-20T11:57:09.932Z,33.38
2019-01-20T11:58:26.200Z,31.27
2019-01-20T11:59:44.891Z,33.42
2019-01-20T12:01:01.445Z,32.40
2019-01-20T12:02:22.415Z,32.23
2019-01-20T12:03:36.797Z,31.57
2019-01-20T12:04:53.725Z,39.63
2019-01-20T12:06:10.321Z,37.60
2019-01-20T12:07:26.850Z,32.13
2019-01-20T12:08:44.083Z,32.55
2019-01-20T12:09:59.269Z,32.08
2019-01-20T12:11:23.441Z,35.95
2019-01-20T12:14:47.577Z,34.75
2019-01-20T12:16:04.114Z,30.68
2019-01-20T12:17:20.696Z,31.15
2019-01-20T12:18:37.072Z,31.30
2019-01-20T12:19:53.472Z,34.92
2019-01-20T12:21:09.964Z,33.05
2019-01-20T12:22:26.802Z,31.55
2019-01-20T12:23:43.429Z,32.53
2019-01-20T12:24:58.608Z,31.82
2019-01-20T12:26:15.010Z,30.62
2019-01-20T12:27:32.189Z,31.45
2019-01-20T12:28:48.586Z,32.08
2019-01-20T12:30:05.161Z,31.80
2019-01-20T12:31:21.683Z,31.17
2019-01-20T12:32:38.976Z,32.08
2019-01-20T12:33:55.349Z,33.70
2019-01-20T12:35:11.814Z,34.58
2019-01-20T12:36:28.433Z,37.33
2019-01-20T12:37:45.332Z,37.98
2019-01-20T12:39:03.908Z,35.10
2019-01-20T12:40:21.657Z,35.08
2019-01-20T12:41:38.481Z,34.85
2019-01-20T12:42:55.121Z,34.05
2019-01-20T12:44:11.513Z,35.25
2019-01-20T12:45:27.842Z,41.92
2019-01-20T12:46:44.339Z,38.80
2019-01-20T12:48:00.826Z,36.60
2019-01-20T12:49:17.292Z,40.35
2019-01-20T12:50:33.859Z,34.98
2019-01-20T12:51:51.085Z,34.20
2019-01-20T12:53:06.361Z,37.63
2019-01-20T12:54:30.546Z,38.23
2019-01-20T12:55:47.494Z,35.58
2019-01-20T12:57:03.878Z,36.90
2019-01-20T12:58:20.971Z,33.90
2019-01-20T12:59:37.517Z,33.67
2019-01-20T13:00:52.738Z,38.00
2019-01-20T13:02:16.929Z,38.78
2019-01-20T13:03:33.941Z,39.80
2019-01-20T13:04:50.766Z,40.33
2019-01-20T13:06:07.320Z,35.95
2019-01-20T13:07:23.634Z,39.00
2019-01-20T13:08:40.262Z,34.27
2019-01-20T13:09:57.063Z,37.35
2019-01-20T13:11:13.468Z,38.28
2019-01-20T13:12:29.873Z,37.38
2019-01-20T13:13:46.493Z,37.55
2019-01-20T13:15:01.751Z,37.40
2019-01-20T13:16:26.026Z,36.05
2019-01-20T13:18:01.695Z,37.13
2019-01-20T13:19:18.443Z,35.20
2019-01-20T13:20:34.806Z,33.15
2019-01-20T13:21:51.240Z,35.73
2019-01-20T13:23:07.686Z,29.65
2019-01-20T13:24:22.921Z,33.25
2019-01-20T13:25:47.100Z,35.40
2019-01-20T13:27:02.374Z,38.35
2019-01-20T13:28:26.548Z,35.90
2019-01-20T13:29:43.048Z,35.83
2019-01-20T13:31:01.954Z,36.60
2019-01-20T13:32:19.179Z,35.58
2019-01-20T13:33:36.487Z,34.05
2019-01-20T13:34:51.973Z,35.20
2019-01-20T13:36:17.258Z,36.68
2019-01-20T13:37:34.484Z,34.67
2019-01-20T13:38:51.541Z,33.83
2019-01-20T13:40:08.676Z,39.18
2019-01-20T13:41:25.348Z,35.30
2019-01-20T13:42:41.725Z,36.03
2019-01-20T13:43:58.128Z,36.70
2019-01-20T13:45:14.768Z,35.15
2019-01-20T13:46:31.068Z,41.25
2019-01-20T13:47:48.816Z,40.98
2019-01-20T13:49:05.604Z,40.23
2019-01-20T13:50:25.016Z,37.42
2019-01-20T13:51:40.337Z,36.93
2019-01-20T13:53:04.529Z,39.00
2019-01-20T13:54:20.814Z,39.95
2019-01-20T13:55:37.323Z,40.63
2019-01-20T13:56:54.453Z,43.45
2019-01-20T13:58:10.997Z,42.67
2019-01-20T13:59:27.805Z,39.10
2019-01-20T14:00:44.706Z,38.65
2019-01-20T14:02:01.879Z,40.95
2019-01-20T14:03:18.321Z,40.38
2019-01-20T14:04:35.121Z,41.37
2019-01-20T14:05:52.323Z,38.90
2019-01-20T14:07:08.902Z,38.75
2019-01-20T14:08:26.113Z,42.88
2019-01-20T14:09:42.770Z,40.17
2019-01-20T14:10:59.084Z,40.20
2019-01-20T14:12:15.685Z,42.25
2019-01-20T14:13:32.254Z,38.30
2019-01-20T14:14:53.900Z,40.45
2019-01-20T14:16:07.026Z,38.42
2019-01-20T14:17:23.433Z,41.37
2019-01-20T14:18:45.213Z,40.05
2019-01-20T14:19:59.016Z,38.15
2019-01-20T14:21:15.616Z,40.05
2019-01-20T14:22:32.195Z,40.05
2019-01-20T14:23:49.089Z,41.33
2019-01-20T14:25:06.354Z,40.90
2019-01-20T14:26:22.986Z,45.52
2019-01-20T14:27:39.763Z,38.67
2019-01-20T14:28:56.873Z,39.05
2019-01-20T14:30:13.513Z,37.60
2019-01-20T14:31:29.907Z,38.67
2019-01-20T14:32:46.781Z,38.30
2019-01-20T14:34:03.195Z,38.78
2019-01-20T14:35:18.432Z,37.53
2019-01-20T14:36:42.712Z,39.63
2019-01-20T14:38:00.005Z,36.98
2019-01-20T14:39:16.771Z,39.23
2019-01-20T14:40:33.981Z,38.08
2019-01-20T14:41:51.014Z,38.92
2019-01-20T14:43:07.445Z,39.85
2019-01-20T14:44:24.025Z,40.40
2019-01-20T14:45:40.687Z,41.33
2019-01-20T14:46:57.100Z,40.98
2019-01-20T14:48:13.539Z,41.55
2019-01-20T14:49:30.099Z,42.67
2019-01-20T14:50:46.756Z,43.78
2019-01-20T14:52:03.156Z,41.37
2019-01-20T14:53:19.622Z,42.23
2019-01-20T14:54:36.753Z,42.95
2019-01-20T14:55:53.284Z,42.67
2019-01-20T14:57:10.018Z,42.65
2019-01-20T14:58:26.312Z,43.48
2019-01-20T14:59:42.691Z,41.80
2019-01-20T15:00:59.395Z,42.40
2019-01-20T15:02:16.257Z,45.12
2019-01-20T15:03:33.318Z,44.75
2019-01-20T15:04:48.533Z,46.37
2019-01-20T15:05:53.603Z,46.23
2019-01-20T15:07:18.042Z,45.67
2019-01-20T15:08:55.397Z,43.95
2019-01-20T15:10:12.324Z,49.15
2019-01-20T15:11:28.614Z,45.60
2019-01-20T15:12:45.295Z,45.45
2019-01-20T15:14:02.339Z,45.45
2019-01-20T15:15:18.894Z,47.03
2019-01-20T15:16:35.454Z,45.55
2019-01-20T15:17:52.310Z,44.88
2019-01-20T15:19:08.729Z,46.63
2019-01-20T15:20:25.709Z,45.20
2019-01-20T15:21:42.387Z,45.45
2019-01-20T15:22:58.697Z,46.80
2019-01-20T15:24:15.281Z,48.28
2019-01-20T15:25:32.492Z,46.85
2019-01-20T15:26:48.904Z,46.70
2019-01-20T15:28:05.645Z,48.40
2019-01-20T15:29:22.324Z,45.95
2019-01-20T15:30:38.760Z,47.35
2019-01-20T15:31:55.014Z,48.08
2019-01-20T15:33:12.283Z,45.52
2019-01-20T15:34:28.646Z,51.08
2019-01-20T15:35:45.205Z,49.00
2019-01-20T15:37:01.816Z,49.27
2019-01-20T15:38:18.272Z,46.68
2019-01-20T15:39:34.812Z,47.67
2019-01-20T15:40:51.313Z,46.70
2019-01-20T15:42:08.149Z,51.08
2019-01-20T15:43:27.331Z,48.78
2019-01-20T15:44:43.917Z,48.48
2019-01-20T15:46:00.251Z,48.17
2019-01-20T15:47:17.422Z,47.08
2019-01-20T15:48:34.813Z,49.35
2019-01-20T15:49:51.147Z,48.98
2019-01-20T15:51:08.171Z,49.88
2019-01-20T15:52:25.523Z,50.10
2019-01-20T15:53:42.186Z,48.02
2019-01-20T15:54:59.862Z,48.42
2019-01-20T15:56:16.292Z,50.43
2019-01-20T15:57:32.862Z,48.73
2019-01-20T15:58:49.157Z,52.38
2019-01-20T16:00:05.797Z,46.68
2019-01-20T16:01:30.339Z,48.73
2019-01-20T16:02:46.929Z,50.60
2019-01-20T16:04:03.515Z,51.48
2019-01-20T16:05:20.002Z,50.20
2019-01-20T16:06:36.671Z,50.70
2019-01-20T16:07:53.828Z,49.75
2019-01-20T16:09:10.165Z,49.58
2019-01-20T16:10:27.025Z,52.33
2019-01-20T16:11:42.228Z,48.28
2019-01-20T16:13:06.410Z,48.80
2019-01-20T16:14:22.733Z,50.12